sensor_id;sensor_type;location;lat;lon;timestamp;temperature;humidity
65582;DHT22;52231;40.090;18.348;2023-03-14T00:00:17;6.40;79.40
65582;DHT22;52231;40.090;18.348;2023-03-14T00:02:45;6.30;79.80
65582;DHT22;52231;40.090;18.348;2023-03-14T00:05:13;6.30;80.00
65582;DHT22;52231;40.090;18.348;2023-03-14T00:07:42;6.30;80.10
65582;DHT22;52231;40.090;18.348;2023-03-14T00:10:13;6.30;80.30
65582;DHT22;52231;40.090;18.348;2023-03-14T00:12:42;6.40;80.40
65582;DHT22;52231;40.090;18.348;2023-03-14T00:15:11;6.30;80.10
65582;DHT22;52231;40.090;18.348;2023-03-14T00:17:42;6.30;79.80
65582;DHT22;52231;40.090;18.348;2023-03-14T00:20:12;6.30;79.60
65582;DHT22;52231;40.090;18.348;2023-03-14T00:22:41;6.30;79.70
65582;DHT22;52231;40.090;18.348;2023-03-14T00:25:11;6.20;79.70
65582;DHT22;52231;40.090;18.348;2023-03-14T00:27:43;6.20;79.80
65582;DHT22;52231;40.090;18.348;2023-03-14T00:30:13;6.10;79.80
65582;DHT22;52231;40.090;18.348;2023-03-14T00:32:42;6.00;80.00
65582;DHT22;52231;40.090;18.348;2023-03-14T00:35:11;6.00;80.20
65582;DHT22;52231;40.090;18.348;2023-03-14T00:37:43;6.00;80.30
65582;DHT22;52231;40.090;18.348;2023-03-14T00:40:14;5.90;80.50
65582;DHT22;52231;40.090;18.348;2023-03-14T00:42:42;5.90;80.40
65582;DHT22;52231;40.090;18.348;2023-03-14T00:45:10;5.90;80.20
65582;DHT22;52231;40.090;18.348;2023-03-14T00:47:38;5.80;80.00
65582;DHT22;52231;40.090;18.348;2023-03-14T00:50:08;5.80;79.80
65582;DHT22;52231;40.090;18.348;2023-03-14T00:52:40;5.70;79.80
65582;DHT22;52231;40.090;18.348;2023-03-14T00:55:09;5.60;79.90
65582;DHT22;52231;40.090;18.348;2023-03-14T00:57:38;5.60;80.20
65582;DHT22;52231;40.090;18.348;2023-03-14T01:00:07;5.60;80.40
65582;DHT22;52231;40.090;18.348;2023-03-14T01:02:39;5.50;80.80
65582;DHT22;52231;40.090;18.348;2023-03-14T01:05:08;5.60;81.00
65582;DHT22;52231;40.090;18.348;2023-03-14T01:07:38;5.60;81.20
65582;DHT22;52231;40.090;18.348;2023-03-14T01:10:07;5.50;81.80
65582;DHT22;52231;40.090;18.348;2023-03-14T01:12:37;5.50;82.10
65582;DHT22;52231;40.090;18.348;2023-03-14T01:15:06;5.60;82.30
65582;DHT22;52231;40.090;18.348;2023-03-14T01:17:35;5.60;82.60
65582;DHT22;52231;40.090;18.348;2023-03-14T01:20:07;5.60;83.10
65582;DHT22;52231;40.090;18.348;2023-03-14T01:22:39;5.70;83.30
65582;DHT22;52231;40.090;18.348;2023-03-14T01:25:14;5.70;83.50
65582;DHT22;52231;40.090;18.348;2023-03-14T01:27:44;5.70;83.90
65582;DHT22;52231;40.090;18.348;2023-03-14T01:30:13;5.80;84.10
65582;DHT22;52231;40.090;18.348;2023-03-14T01:32:44;5.80;84.70
65582;DHT22;52231;40.090;18.348;2023-03-14T01:35:13;5.90;84.80
65582;DHT22;52231;40.090;18.348;2023-03-14T01:37:41;6.00;85.00
65582;DHT22;52231;40.090;18.348;2023-03-14T01:40:15;6.00;85.20
65582;DHT22;52231;40.090;18.348;2023-03-14T01:42:56;6.00;85.70
65582;DHT22;52231;40.090;18.348;2023-03-14T01:48:50;6.10;86.00
65582;DHT22;52231;40.090;18.348;2023-03-14T01:54:20;6.00;85.30
65582;DHT22;52231;40.090;18.348;2023-03-14T01:56:54;5.90;85.10
65582;DHT22;52231;40.090;18.348;2023-03-14T01:59:25;5.80;84.90
65582;DHT22;52231;40.090;18.348;2023-03-14T02:01:54;5.80;84.80
65582;DHT22;52231;40.090;18.348;2023-03-14T02:04:30;5.80;85.00
65582;DHT22;52231;40.090;18.348;2023-03-14T02:07:08;5.80;85.20
65582;DHT22;52231;40.090;18.348;2023-03-14T02:09:44;5.80;85.00
65582;DHT22;52231;40.090;18.348;2023-03-14T02:12:22;5.60;84.30
65582;DHT22;52231;40.090;18.348;2023-03-14T02:15:28;5.60;83.60
65582;DHT22;52231;40.090;18.348;2023-03-14T02:18:05;5.50;83.20
65582;DHT22;52231;40.090;18.348;2023-03-14T02:24:17;5.40;83.20
65582;DHT22;52231;40.090;18.348;2023-03-14T02:29:57;5.40;83.70
65582;DHT22;52231;40.090;18.348;2023-03-14T02:32:32;5.40;84.60
65582;DHT22;52231;40.090;18.348;2023-03-14T02:35:05;5.40;85.30
65582;DHT22;52231;40.090;18.348;2023-03-14T02:37:46;5.50;85.70
65582;DHT22;52231;40.090;18.348;2023-03-14T02:40:15;5.50;85.90
65582;DHT22;52231;40.090;18.348;2023-03-14T02:42:45;5.50;86.30
65582;DHT22;52231;40.090;18.348;2023-03-14T02:48:07;5.60;86.80
65582;DHT22;52231;40.090;18.348;2023-03-14T02:50:38;5.70;86.80
65582;DHT22;52231;40.090;18.348;2023-03-14T02:53:12;5.60;86.70
65582;DHT22;52231;40.090;18.348;2023-03-14T02:55:45;5.60;86.80
65582;DHT22;52231;40.090;18.348;2023-03-14T02:58:16;5.60;86.80
65582;DHT22;52231;40.090;18.348;2023-03-14T03:00:50;5.60;87.00
65582;DHT22;52231;40.090;18.348;2023-03-14T03:03:26;5.70;87.10
65582;DHT22;52231;40.090;18.348;2023-03-14T03:05:56;5.70;87.10
65582;DHT22;52231;40.090;18.348;2023-03-14T03:08:27;5.70;87.30
65582;DHT22;52231;40.090;18.348;2023-03-14T03:10:58;5.80;87.50
65582;DHT22;52231;40.090;18.348;2023-03-14T03:13:29;5.80;87.70
65582;DHT22;52231;40.090;18.348;2023-03-14T03:15:59;5.90;87.70
65582;DHT22;52231;40.090;18.348;2023-03-14T03:18:28;5.90;87.60
65582;DHT22;52231;40.090;18.348;2023-03-14T03:21:03;5.90;87.70
65582;DHT22;52231;40.090;18.348;2023-03-14T03:23:32;5.90;87.80
65582;DHT22;52231;40.090;18.348;2023-03-14T03:26:00;6.00;87.90
65582;DHT22;52231;40.090;18.348;2023-03-14T03:28:30;6.00;88.10
65582;DHT22;52231;40.090;18.348;2023-03-14T03:31:06;6.00;88.10
65582;DHT22;52231;40.090;18.348;2023-03-14T03:33:37;6.20;88.40
65582;DHT22;52231;40.090;18.348;2023-03-14T03:36:07;6.20;88.50
65582;DHT22;52231;40.090;18.348;2023-03-14T03:38:37;6.20;88.60
65582;DHT22;52231;40.090;18.348;2023-03-14T03:41:07;6.20;88.50
65582;DHT22;52231;40.090;18.348;2023-03-14T03:43:36;6.10;88.40
65582;DHT22;52231;40.090;18.348;2023-03-14T03:46:09;6.10;88.40
65582;DHT22;52231;40.090;18.348;2023-03-14T03:48:38;6.10;88.40
65582;DHT22;52231;40.090;18.348;2023-03-14T03:51:14;6.10;88.50
65582;DHT22;52231;40.090;18.348;2023-03-14T03:53:43;6.10;88.60
65582;DHT22;52231;40.090;18.348;2023-03-14T03:56:15;6.20;88.70
65582;DHT22;52231;40.090;18.348;2023-03-14T03:58:44;6.20;88.80
65582;DHT22;52231;40.090;18.348;2023-03-14T04:01:14;6.30;89.00
65582;DHT22;52231;40.090;18.348;2023-03-14T04:03:45;6.30;89.10
65582;DHT22;52231;40.090;18.348;2023-03-14T04:06:14;6.30;89.30
65582;DHT22;52231;40.090;18.348;2023-03-14T04:08:45;6.30;89.40
65582;DHT22;52231;40.090;18.348;2023-03-14T04:11:29;6.40;89.30
65582;DHT22;52231;40.090;18.348;2023-03-14T04:14:18;6.40;89.40
65582;DHT22;52231;40.090;18.348;2023-03-14T04:16:47;6.40;89.50
65582;DHT22;52231;40.090;18.348;2023-03-14T04:19:18;6.40;89.50
65582;DHT22;52231;40.090;18.348;2023-03-14T04:21:47;6.30;89.50
65582;DHT22;52231;40.090;18.348;2023-03-14T04:24:19;6.30;89.60
65582;DHT22;52231;40.090;18.348;2023-03-14T04:26:49;6.30;89.70
65582;DHT22;52231;40.090;18.348;2023-03-14T04:29:18;6.30;89.70
65582;DHT22;52231;40.090;18.348;2023-03-14T04:31:49;6.30;89.70
65582;DHT22;52231;40.090;18.348;2023-03-14T04:34:18;6.30;89.70
65582;DHT22;52231;40.090;18.348;2023-03-14T04:36:52;6.30;89.80
65582;DHT22;52231;40.090;18.348;2023-03-14T04:39:29;6.30;89.90
65582;DHT22;52231;40.090;18.348;2023-03-14T04:42:06;6.30;90.00
65582;DHT22;52231;40.090;18.348;2023-03-14T04:44:37;6.40;90.10
65582;DHT22;52231;40.090;18.348;2023-03-14T04:47:06;6.50;90.10
65582;DHT22;52231;40.090;18.348;2023-03-14T04:49:35;6.50;90.20
65582;DHT22;52231;40.090;18.348;2023-03-14T04:52:03;6.60;90.30
65582;DHT22;52231;40.090;18.348;2023-03-14T04:54:34;6.80;90.50
65582;DHT22;52231;40.090;18.348;2023-03-14T04:57:03;6.90;90.60
65582;DHT22;52231;40.090;18.348;2023-03-14T04:59:34;7.00;90.70
65582;DHT22;52231;40.090;18.348;2023-03-14T05:02:16;7.10;90.80
65582;DHT22;52231;40.090;18.348;2023-03-14T05:05:04;7.20;90.80
65582;DHT22;52231;40.090;18.348;2023-03-14T05:07:44;7.20;90.90
65582;DHT22;52231;40.090;18.348;2023-03-14T05:10:32;7.30;91.20
65582;DHT22;52231;40.090;18.348;2023-03-14T05:13:11;7.60;91.40
65582;DHT22;52231;40.090;18.348;2023-03-14T05:16:10;7.70;91.40
65582;DHT22;52231;40.090;18.348;2023-03-14T05:18:47;7.80;91.40
65582;DHT22;52231;40.090;18.348;2023-03-14T05:21:45;7.80;91.40
65582;DHT22;52231;40.090;18.348;2023-03-14T05:24:36;7.90;91.40
65582;DHT22;52231;40.090;18.348;2023-03-14T05:27:13;7.90;91.40
65582;DHT22;52231;40.090;18.348;2023-03-14T05:30:14;7.80;91.50
65582;DHT22;52231;40.090;18.348;2023-03-14T05:33:12;8.00;91.50
65582;DHT22;52231;40.090;18.348;2023-03-14T05:35:52;8.20;91.40
65582;DHT22;52231;40.090;18.348;2023-03-14T05:38:44;8.40;91.40
65582;DHT22;52231;40.090;18.348;2023-03-14T05:41:38;8.70;91.40
65582;DHT22;52231;40.090;18.348;2023-03-14T05:44:42;8.80;91.40
65582;DHT22;52231;40.090;18.348;2023-03-14T05:47:33;9.00;91.40
65582;DHT22;52231;40.090;18.348;2023-03-14T05:50:25;9.20;91.40
65582;DHT22;52231;40.090;18.348;2023-03-14T05:53:18;9.30;91.40
65582;DHT22;52231;40.090;18.348;2023-03-14T05:56:12;9.40;91.30
65582;DHT22;52231;40.090;18.348;2023-03-14T05:59:18;9.60;91.20
65582;DHT22;52231;40.090;18.348;2023-03-14T06:02:16;9.80;91.00
65582;DHT22;52231;40.090;18.348;2023-03-14T06:04:57;10.10;90.90
65582;DHT22;52231;40.090;18.348;2023-03-14T06:07:25;10.40;90.70
65582;DHT22;52231;40.090;18.348;2023-03-14T06:09:54;10.60;90.40
65582;DHT22;52231;40.090;18.348;2023-03-14T06:12:36;10.90;90.10
65582;DHT22;52231;40.090;18.348;2023-03-14T06:15:05;11.10;89.60
65582;DHT22;52231;40.090;18.348;2023-03-14T06:17:34;11.30;89.00
65582;DHT22;52231;40.090;18.348;2023-03-14T06:20:09;11.50;88.60
65582;DHT22;52231;40.090;18.348;2023-03-14T06:22:38;11.80;88.10
65582;DHT22;52231;40.090;18.348;2023-03-14T06:25:12;12.00;87.80
65582;DHT22;52231;40.090;18.348;2023-03-14T06:27:44;12.30;87.40
65582;DHT22;52231;40.090;18.348;2023-03-14T06:30:13;12.50;86.90
65582;DHT22;52231;40.090;18.348;2023-03-14T06:32:41;12.70;86.30
65582;DHT22;52231;40.090;18.348;2023-03-14T06:35:12;12.90;86.20
65582;DHT22;52231;40.090;18.348;2023-03-14T06:37:43;13.20;85.70
65582;DHT22;52231;40.090;18.348;2023-03-14T06:40:13;13.40;85.20
65582;DHT22;52231;40.090;18.348;2023-03-14T06:43:13;13.60;84.70
65582;DHT22;52231;40.090;18.348;2023-03-14T06:45:47;13.50;84.40
65582;DHT22;52231;40.090;18.348;2023-03-14T06:48:15;13.40;84.50
65582;DHT22;52231;40.090;18.348;2023-03-14T06:50:48;13.40;84.60
65582;DHT22;52231;40.090;18.348;2023-03-14T06:53:17;13.60;84.50
65582;DHT22;52231;40.090;18.348;2023-03-14T06:55:46;13.70;84.30
65582;DHT22;52231;40.090;18.348;2023-03-14T06:58:17;13.80;84.00
65582;DHT22;52231;40.090;18.348;2023-03-14T07:00:46;13.90;83.90
65582;DHT22;52231;40.090;18.348;2023-03-14T07:03:23;14.10;83.30
65582;DHT22;52231;40.090;18.348;2023-03-14T07:05:54;14.20;83.00
65582;DHT22;52231;40.090;18.348;2023-03-14T07:08:29;14.40;82.60
65582;DHT22;52231;40.090;18.348;2023-03-14T07:11:02;14.50;82.10
65582;DHT22;52231;40.090;18.348;2023-03-14T07:13:30;14.60;81.80
65582;DHT22;52231;40.090;18.348;2023-03-14T07:16:06;15.00;81.60
65582;DHT22;52231;40.090;18.348;2023-03-14T07:18:37;15.40;80.00
65582;DHT22;52231;40.090;18.348;2023-03-14T07:21:08;15.60;78.90
65582;DHT22;52231;40.090;18.348;2023-03-14T07:23:42;15.80;77.70
65582;DHT22;52231;40.090;18.348;2023-03-14T07:26:12;16.10;76.90
65582;DHT22;52231;40.090;18.348;2023-03-14T07:28:46;16.40;76.00
65582;DHT22;52231;40.090;18.348;2023-03-14T07:31:20;16.10;75.50
65582;DHT22;52231;40.090;18.348;2023-03-14T07:33:48;15.70;76.90
65582;DHT22;52231;40.090;18.348;2023-03-14T07:36:36;15.60;77.60
65582;DHT22;52231;40.090;18.348;2023-03-14T07:39:04;15.80;77.00
65582;DHT22;52231;40.090;18.348;2023-03-14T07:41:39;15.90;76.10
65582;DHT22;52231;40.090;18.348;2023-03-14T07:44:25;15.70;76.00
65582;DHT22;52231;40.090;18.348;2023-03-14T07:46:54;15.70;76.30
65582;DHT22;52231;40.090;18.348;2023-03-14T07:49:25;15.80;76.40
65582;DHT22;52231;40.090;18.348;2023-03-14T07:51:54;16.00;75.80
65582;DHT22;52231;40.090;18.348;2023-03-14T07:54:22;16.10;75.40
65582;DHT22;52231;40.090;18.348;2023-03-14T07:56:51;16.20;75.10
65582;DHT22;52231;40.090;18.348;2023-03-14T07:59:19;16.30;74.70
65582;DHT22;52231;40.090;18.348;2023-03-14T08:01:48;16.30;74.70
65582;DHT22;52231;40.090;18.348;2023-03-14T08:04:16;16.30;74.50
65582;DHT22;52231;40.090;18.348;2023-03-14T08:06:45;16.30;74.30
65582;DHT22;52231;40.090;18.348;2023-03-14T08:09:16;16.60;74.80
65582;DHT22;52231;40.090;18.348;2023-03-14T08:11:45;16.70;73.40
65582;DHT22;52231;40.090;18.348;2023-03-14T08:14:13;16.80;73.40
65582;DHT22;52231;40.090;18.348;2023-03-14T08:16:41;16.90;73.30
65582;DHT22;52231;40.090;18.348;2023-03-14T08:19:12;17.00;72.70
65582;DHT22;52231;40.090;18.348;2023-03-14T08:21:40;17.00;73.10
65582;DHT22;52231;40.090;18.348;2023-03-14T08:24:09;17.30;72.90
65582;DHT22;52231;40.090;18.348;2023-03-14T08:26:39;17.30;72.00
65582;DHT22;52231;40.090;18.348;2023-03-14T08:29:07;17.40;71.50
65582;DHT22;52231;40.090;18.348;2023-03-14T08:31:35;17.50;71.00
65582;DHT22;52231;40.090;18.348;2023-03-14T08:34:04;17.50;70.70
65582;DHT22;52231;40.090;18.348;2023-03-14T08:36:37;17.50;70.40
65582;DHT22;52231;40.090;18.348;2023-03-14T08:39:05;17.40;70.80
65582;DHT22;52231;40.090;18.348;2023-03-14T08:41:35;17.70;70.40
65582;DHT22;52231;40.090;18.348;2023-03-14T08:44:09;17.80;69.30
65582;DHT22;52231;40.090;18.348;2023-03-14T08:46:37;17.90;69.40
65582;DHT22;52231;40.090;18.348;2023-03-14T08:49:05;17.70;69.60
65582;DHT22;52231;40.090;18.348;2023-03-14T08:51:34;17.80;69.50
65582;DHT22;52231;40.090;18.348;2023-03-14T08:54:04;17.80;68.90
65582;DHT22;52231;40.090;18.348;2023-03-14T08:56:33;17.80;68.90
65582;DHT22;52231;40.090;18.348;2023-03-14T08:59:01;17.70;69.10
65582;DHT22;52231;40.090;18.348;2023-03-14T09:01:29;17.80;69.50
65582;DHT22;52231;40.090;18.348;2023-03-14T09:04:04;17.80;69.40
65582;DHT22;52231;40.090;18.348;2023-03-14T09:06:36;18.00;69.00
65582;DHT22;52231;40.090;18.348;2023-03-14T09:09:04;18.30;68.30
65582;DHT22;52231;40.090;18.348;2023-03-14T09:11:32;18.50;67.40
65582;DHT22;52231;40.090;18.348;2023-03-14T09:14:07;18.40;67.80
65582;DHT22;52231;40.090;18.348;2023-03-14T09:16:37;18.20;67.70
65582;DHT22;52231;40.090;18.348;2023-03-14T09:19:06;18.30;67.30
65582;DHT22;52231;40.090;18.348;2023-03-14T09:21:34;18.20;68.10
65582;DHT22;52231;40.090;18.348;2023-03-14T09:24:10;18.20;68.90
65582;DHT22;52231;40.090;18.348;2023-03-14T09:26:38;18.30;68.10
65582;DHT22;52231;40.090;18.348;2023-03-14T09:29:07;18.30;67.70
65582;DHT22;52231;40.090;18.348;2023-03-14T09:31:35;18.20;68.00
65582;DHT22;52231;40.090;18.348;2023-03-14T09:34:04;18.00;67.50
65582;DHT22;52231;40.090;18.348;2023-03-14T09:36:33;18.00;67.90
65582;DHT22;52231;40.090;18.348;2023-03-14T09:39:03;18.20;68.00
65582;DHT22;52231;40.090;18.348;2023-03-14T09:41:39;18.40;66.40
65582;DHT22;52231;40.090;18.348;2023-03-14T09:44:33;18.40;66.50
65582;DHT22;52231;40.090;18.348;2023-03-14T09:47:12;18.50;66.00
65582;DHT22;52231;40.090;18.348;2023-03-14T09:49:41;18.70;66.30
65582;DHT22;52231;40.090;18.348;2023-03-14T09:57:24;19.10;65.20
65582;DHT22;52231;40.090;18.348;2023-03-14T10:00:07;19.30;64.70
65582;DHT22;52231;40.090;18.348;2023-03-14T10:02:46;19.20;64.70
65582;DHT22;52231;40.090;18.348;2023-03-14T10:05:17;19.10;64.00
65582;DHT22;52231;40.090;18.348;2023-03-14T10:07:48;19.40;63.50
65582;DHT22;52231;40.090;18.348;2023-03-14T10:10:23;19.40;63.70
65582;DHT22;52231;40.090;18.348;2023-03-14T10:15:33;19.40;62.80
65582;DHT22;52231;40.090;18.348;2023-03-14T10:18:03;19.00;64.60
65582;DHT22;52231;40.090;18.348;2023-03-14T10:20:40;19.10;64.90
65582;DHT22;52231;40.090;18.348;2023-03-14T10:25:46;19.60;62.90
65582;DHT22;52231;40.090;18.348;2023-03-14T10:28:32;19.30;63.80
65582;DHT22;52231;40.090;18.348;2023-03-14T10:31:04;19.30;63.50
65582;DHT22;52231;40.090;18.348;2023-03-14T10:33:41;19.20;63.30
65582;DHT22;52231;40.090;18.348;2023-03-14T10:38:46;19.70;62.80
65582;DHT22;52231;40.090;18.348;2023-03-14T10:41:30;19.90;61.60
65582;DHT22;52231;40.090;18.348;2023-03-14T10:44:00;20.00;60.80
65582;DHT22;52231;40.090;18.348;2023-03-14T10:46:32;20.00;60.60
65582;DHT22;52231;40.090;18.348;2023-03-14T10:49:33;19.80;61.70
65582;DHT22;52231;40.090;18.348;2023-03-14T10:52:20;19.90;61.20
65582;DHT22;52231;40.090;18.348;2023-03-14T10:55:26;19.90;60.90
65582;DHT22;52231;40.090;18.348;2023-03-14T10:57:59;19.80;61.40
65582;DHT22;52231;40.090;18.348;2023-03-14T11:00:33;19.40;61.70
65582;DHT22;52231;40.090;18.348;2023-03-14T11:03:11;19.30;61.40
65582;DHT22;52231;40.090;18.348;2023-03-14T11:05:45;18.90;62.50
65582;DHT22;52231;40.090;18.348;2023-03-14T11:10:50;18.70;64.30
65582;DHT22;52231;40.090;18.348;2023-03-14T11:13:48;18.80;63.90
65582;DHT22;52231;40.090;18.348;2023-03-14T11:27:23;18.30;65.50
65582;DHT22;52231;40.090;18.348;2023-03-14T11:30:02;18.40;65.10
65582;DHT22;52231;40.090;18.348;2023-03-14T11:35:33;18.60;65.10
65582;DHT22;52231;40.090;18.348;2023-03-14T11:38:19;18.30;65.50
65582;DHT22;52231;40.090;18.348;2023-03-14T11:40:53;18.40;65.20
65582;DHT22;52231;40.090;18.348;2023-03-14T11:43:41;18.40;65.90
65582;DHT22;52231;40.090;18.348;2023-03-14T11:46:19;18.70;65.90
65582;DHT22;52231;40.090;18.348;2023-03-14T11:51:45;19.40;63.80
65582;DHT22;52231;40.090;18.348;2023-03-14T11:57:21;19.10;63.30
65582;DHT22;52231;40.090;18.348;2023-03-14T12:10:58;18.10;66.40
65582;DHT22;52231;40.090;18.348;2023-03-14T12:13:32;17.80;68.00
65582;DHT22;52231;40.090;18.348;2023-03-14T12:16:09;18.00;67.90
65582;DHT22;52231;40.090;18.348;2023-03-14T12:18:48;17.80;67.10
65582;DHT22;52231;40.090;18.348;2023-03-14T12:21:17;17.80;67.30
65582;DHT22;52231;40.090;18.348;2023-03-14T12:23:50;17.70;68.60
65582;DHT22;52231;40.090;18.348;2023-03-14T12:26:25;17.80;67.80
65582;DHT22;52231;40.090;18.348;2023-03-14T12:39:31;18.00;67.80
65582;DHT22;52231;40.090;18.348;2023-03-14T12:42:17;18.30;67.00
65582;DHT22;52231;40.090;18.348;2023-03-14T12:44:52;18.20;66.90
65582;DHT22;52231;40.090;18.348;2023-03-14T12:49:53;18.10;67.50
65582;DHT22;52231;40.090;18.348;2023-03-14T12:52:41;18.00;67.30
65582;DHT22;52231;40.090;18.348;2023-03-14T12:55:24;18.10;67.80
65582;DHT22;52231;40.090;18.348;2023-03-14T12:58:14;17.70;69.00
65582;DHT22;52231;40.090;18.348;2023-03-14T13:01:01;17.50;69.70
65582;DHT22;52231;40.090;18.348;2023-03-14T13:06:51;17.80;69.60
65582;DHT22;52231;40.090;18.348;2023-03-14T13:12:16;17.70;69.80
65582;DHT22;52231;40.090;18.348;2023-03-14T13:14:52;17.70;69.70
65582;DHT22;52231;40.090;18.348;2023-03-14T13:17:32;17.50;70.10
65582;DHT22;52231;40.090;18.348;2023-03-14T13:20:35;17.60;70.50
65582;DHT22;52231;40.090;18.348;2023-03-14T13:23:04;17.40;69.40
65582;DHT22;52231;40.090;18.348;2023-03-14T13:25:33;17.80;70.10
65582;DHT22;52231;40.090;18.348;2023-03-14T13:28:02;17.90;69.50
65582;DHT22;52231;40.090;18.348;2023-03-14T13:30:55;17.80;69.70
65582;DHT22;52231;40.090;18.348;2023-03-14T13:33:25;17.60;70.00
65582;DHT22;52231;40.090;18.348;2023-03-14T13:36:01;17.20;71.20
65582;DHT22;52231;40.090;18.348;2023-03-14T13:38:34;17.00;71.60
65582;DHT22;52231;40.090;18.348;2023-03-14T13:41:10;17.20;71.90
65582;DHT22;52231;40.090;18.348;2023-03-14T13:43:41;17.40;71.30
65582;DHT22;52231;40.090;18.348;2023-03-14T13:46:22;17.30;71.90
65582;DHT22;52231;40.090;18.348;2023-03-14T13:49:05;17.30;71.50
65582;DHT22;52231;40.090;18.348;2023-03-14T13:51:41;17.30;71.40
65582;DHT22;52231;40.090;18.348;2023-03-14T13:54:13;17.30;71.70
65582;DHT22;52231;40.090;18.348;2023-03-14T13:56:41;17.30;71.50
65582;DHT22;52231;40.090;18.348;2023-03-14T13:59:28;17.10;72.70
65582;DHT22;52231;40.090;18.348;2023-03-14T14:02:17;17.00;72.90
65582;DHT22;52231;40.090;18.348;2023-03-14T14:04:47;16.80;73.40
65582;DHT22;52231;40.090;18.348;2023-03-14T14:07:17;16.80;73.40
65582;DHT22;52231;40.090;18.348;2023-03-14T14:09:49;16.90;73.60
65582;DHT22;52231;40.090;18.348;2023-03-14T14:12:26;16.90;73.70
65582;DHT22;52231;40.090;18.348;2023-03-14T14:15:28;16.80;74.40
65582;DHT22;52231;40.090;18.348;2023-03-14T14:18:09;16.60;74.10
65582;DHT22;52231;40.090;18.348;2023-03-14T14:20:45;16.60;74.70
65582;DHT22;52231;40.090;18.348;2023-03-14T14:23:22;16.50;75.20
65582;DHT22;52231;40.090;18.348;2023-03-14T14:25:57;16.40;75.40
65582;DHT22;52231;40.090;18.348;2023-03-14T14:28:33;16.30;76.00
65582;DHT22;52231;40.090;18.348;2023-03-14T14:33:53;16.10;76.80
65582;DHT22;52231;40.090;18.348;2023-03-14T14:41:51;16.10;77.30
65582;DHT22;52231;40.090;18.348;2023-03-14T14:44:38;16.10;77.20
65582;DHT22;52231;40.090;18.348;2023-03-14T14:47:06;16.00;77.60
65582;DHT22;52231;40.090;18.348;2023-03-14T14:49:35;15.90;77.70
65582;DHT22;52231;40.090;18.348;2023-03-14T14:52:13;15.90;77.90
65582;DHT22;52231;40.090;18.348;2023-03-14T14:54:47;16.00;77.80
65582;DHT22;52231;40.090;18.348;2023-03-14T14:57:28;15.90;78.10
65582;DHT22;52231;40.090;18.348;2023-03-14T15:00:16;15.90;78.20
65582;DHT22;52231;40.090;18.348;2023-03-14T15:02:47;15.90;78.50
65582;DHT22;52231;40.090;18.348;2023-03-14T15:05:21;15.90;78.60
65582;DHT22;52231;40.090;18.348;2023-03-14T15:07:51;15.90;78.40
65582;DHT22;52231;40.090;18.348;2023-03-14T15:10:22;15.80;78.70
65582;DHT22;52231;40.090;18.348;2023-03-14T15:12:51;15.80;78.60
65582;DHT22;52231;40.090;18.348;2023-03-14T15:15:20;15.70;79.20
65582;DHT22;52231;40.090;18.348;2023-03-14T15:17:48;15.60;79.40
65582;DHT22;52231;40.090;18.348;2023-03-14T15:20:17;15.60;79.70
65582;DHT22;52231;40.090;18.348;2023-03-14T15:22:47;15.60;79.80
65582;DHT22;52231;40.090;18.348;2023-03-14T15:25:17;15.60;80.00
65582;DHT22;52231;40.090;18.348;2023-03-14T15:28:26;15.60;80.20
65582;DHT22;52231;40.090;18.348;2023-03-14T15:30:57;15.60;80.20
65582;DHT22;52231;40.090;18.348;2023-03-14T15:33:26;15.50;80.40
65582;DHT22;52231;40.090;18.348;2023-03-14T15:35:57;15.50;80.60
65582;DHT22;52231;40.090;18.348;2023-03-14T15:38:27;15.40;80.70
65582;DHT22;52231;40.090;18.348;2023-03-14T15:40:56;15.40;80.90
65582;DHT22;52231;40.090;18.348;2023-03-14T15:43:24;15.30;80.60
65582;DHT22;52231;40.090;18.348;2023-03-14T15:45:52;15.30;81.10
65582;DHT22;52231;40.090;18.348;2023-03-14T15:48:27;15.30;81.00
65582;DHT22;52231;40.090;18.348;2023-03-14T15:50:55;15.10;81.30
65582;DHT22;52231;40.090;18.348;2023-03-14T15:53:23;15.00;81.70
65582;DHT22;52231;40.090;18.348;2023-03-14T15:55:52;15.00;82.00
65582;DHT22;52231;40.090;18.348;2023-03-14T15:58:22;14.90;82.30
65582;DHT22;52231;40.090;18.348;2023-03-14T16:00:56;14.90;82.40
65582;DHT22;52231;40.090;18.348;2023-03-14T16:03:24;14.80;82.20
65582;DHT22;52231;40.090;18.348;2023-03-14T16:05:53;14.80;82.30
65582;DHT22;52231;40.090;18.348;2023-03-14T16:08:23;14.70;82.60
65582;DHT22;52231;40.090;18.348;2023-03-14T16:10:57;14.60;83.10
65582;DHT22;52231;40.090;18.348;2023-03-14T16:13:26;14.60;83.30
65582;DHT22;52231;40.090;18.348;2023-03-14T16:16:00;14.60;83.40
65582;DHT22;52231;40.090;18.348;2023-03-14T16:18:31;14.50;83.70
65582;DHT22;52231;40.090;18.348;2023-03-14T16:21:02;14.50;83.90
65582;DHT22;52231;40.090;18.348;2023-03-14T16:23:34;14.50;84.00
65582;DHT22;52231;40.090;18.348;2023-03-14T16:26:08;14.50;84.20
65582;DHT22;52231;40.090;18.348;2023-03-14T16:28:38;14.50;84.30
65582;DHT22;52231;40.090;18.348;2023-03-14T16:31:09;14.40;84.50
65582;DHT22;52231;40.090;18.348;2023-03-14T16:33:39;14.40;84.50
65582;DHT22;52231;40.090;18.348;2023-03-14T16:36:13;14.40;84.70
65582;DHT22;52231;40.090;18.348;2023-03-14T16:38:43;14.30;84.70
65582;DHT22;52231;40.090;18.348;2023-03-14T16:41:17;14.30;84.80
65582;DHT22;52231;40.090;18.348;2023-03-14T16:43:46;14.30;84.80
65582;DHT22;52231;40.090;18.348;2023-03-14T16:46:19;14.30;84.80
65582;DHT22;52231;40.090;18.348;2023-03-14T16:48:50;14.30;84.90
65582;DHT22;52231;40.090;18.348;2023-03-14T16:51:23;14.30;84.60
65582;DHT22;52231;40.090;18.348;2023-03-14T16:53:51;14.20;84.70
65582;DHT22;52231;40.090;18.348;2023-03-14T16:56:20;14.30;85.00
65582;DHT22;52231;40.090;18.348;2023-03-14T16:58:50;14.30;84.90
65582;DHT22;52231;40.090;18.348;2023-03-14T17:01:18;14.20;84.90
65582;DHT22;52231;40.090;18.348;2023-03-14T17:03:49;14.20;85.00
65582;DHT22;52231;40.090;18.348;2023-03-14T17:06:21;14.10;85.20
65582;DHT22;52231;40.090;18.348;2023-03-14T17:08:54;14.00;85.10
65582;DHT22;52231;40.090;18.348;2023-03-14T17:11:25;14.00;85.10
65582;DHT22;52231;40.090;18.348;2023-03-14T17:13:54;13.90;85.10
65582;DHT22;52231;40.090;18.348;2023-03-14T17:16:22;14.00;85.20
65582;DHT22;52231;40.090;18.348;2023-03-14T17:18:51;13.90;85.40
65582;DHT22;52231;40.090;18.348;2023-03-14T17:21:20;13.90;85.50
65582;DHT22;52231;40.090;18.348;2023-03-14T17:23:49;13.90;85.70
65582;DHT22;52231;40.090;18.348;2023-03-14T17:26:19;13.80;85.80
65582;DHT22;52231;40.090;18.348;2023-03-14T17:28:48;13.80;86.00
65582;DHT22;52231;40.090;18.348;2023-03-14T17:31:17;13.80;85.90
65582;DHT22;52231;40.090;18.348;2023-03-14T17:33:48;13.80;85.90